Time;durP1;ratioP1;P1;durP2;ratioP2;P2;SDS_P1;SDS_P2;PMS_P1;PMS_P2;Temp;Humidity;BMP_temperature;BMP_pressure;BME280_temperature;BME280_humidity;BME280_pressure;Samples;Min_cycle;Max_cycle;Signal;HPM_P1;HPM_P2
2020/12/02 00:01:56;;;;;;;72.93;44.40;;;3.00;63.20;;;;;;5052956;28;20052;-46
2020/12/02 00:04:24;;;;;;;64.97;38.28;;;3.00;63.00;;;;;;5052854;28;20048;-45
2020/12/02 00:06:50;;;;;;;61.03;37.10;;;3.00;63.10;;;;;;5052930;28;20067;-46
2020/12/02 00:09:21;;;;;;;75.05;43.85;;;3.00;62.70;;;;;;5052935;28;20052;-46
2020/12/02 00:11:48;;;;;;;69.35;41.05;;;3.10;62.50;;;;;;5053107;28;20025;-45
2020/12/02 00:14:29;;;;;;;70.05;42.05;;;3.00;62.40;;;;;;5055140;28;20420;-46
2020/12/02 00:16:56;;;;;;;74.05;40.50;;;2.90;62.30;;;;;;5056640;28;20036;-47
2020/12/02 00:19:23;;;;;;;71.97;42.42;;;2.90;62.30;;;;;;5038392;28;20120;-46
2020/12/02 00:21:59;;;;;;;64.50;39.20;;;3.00;62.10;;;;;;5056596;28;20029;-45
2020/12/02 00:24:26;;;;;;;70.72;40.28;;;3.00;62.70;;;;;;5056331;28;20033;-45
2020/12/02 00:26:52;;;;;;;65.78;39.28;;;3.00;62.80;;;;;;5056598;28;20033;-46
2020/12/02 00:29:18;;;;;;;71.20;42.22;;;2.90;62.60;;;;;;5056444;28;20112;-46
2020/12/02 00:31:43;;;;;;;61.08;38.58;;;2.80;63.80;;;;;;5056760;28;20414;-46
2020/12/02 00:34:09;;;;;;;60.20;37.65;;;2.90;62.90;;;;;;5037677;28;20590;-45
2020/12/02 00:36:35;;;;;;;58.40;37.15;;;2.90;63.10;;;;;;5056247;28;20032;-46
2020/12/02 00:39:01;;;;;;;64.18;40.25;;;2.80;63.60;;;;;;5037620;28;20086;-46
2020/12/02 00:41:26;;;;;;;66.25;40.97;;;2.80;63.30;;;;;;5037658;28;20036;-46
2020/12/02 00:43:52;;;;;;;68.20;40.47;;;2.80;63.30;;;;;;5056101;28;20035;-46
2020/12/02 00:46:18;;;;;;;64.55;38.10;;;2.70;63.20;;;;;;5056032;28;20021;-46
2020/12/02 00:48:50;;;;;;;62.60;38.63;;;2.70;63.30;;;;;;5056137;28;20024;-45
2020/12/02 00:51:16;;;;;;;60.53;37.85;;;2.60;63.60;;;;;;5037602;28;20037;-46
2020/12/02 00:53:42;;;;;;;57.65;36.28;;;2.60;63.60;;;;;;5056080;28;20100;-46
2020/12/02 00:56:10;;;;;;;58.83;36.72;;;2.50;63.60;;;;;;5037353;28;20151;-47
2020/12/02 00:59:27;;;;;;;63.33;37.55;;;2.40;63.60;;;;;;5055893;28;20025;-47
2020/12/02 01:02:01;;;;;;;61.55;36.63;;;2.40;63.90;;;;;;4994416;28;20066;-46
2020/12/02 01:04:27;;;;;;;60.67;37.30;;;2.40;64.20;;;;;;4994437;28;20030;-45
2020/12/02 01:06:56;;;;;;;59.15;37.53;;;2.40;64.30;;;;;;4994329;28;20039;-46
2020/12/02 01:09:24;;;;;;;60.35;38.08;;;2.40;64.20;;;;;;4994171;28;20054;-47
2020/12/02 01:11:53;;;;;;;63.25;38.03;;;2.40;64.00;;;;;;4994344;28;20049;-45
2020/12/02 01:14:19;;;;;;;65.03;37.15;;;2.30;64.20;;;;;;4994067;28;20041;-46
2020/12/02 01:16:50;;;;;;;64.68;39.60;;;2.40;64.40;;;;;;4994117;28;20438;-45
2020/12/02 01:19:21;;;;;;;60.42;37.80;;;2.40;64.30;;;;;;4994226;28;20490;-46
2020/12/02 01:22:26;;;;;;;58.08;37.08;;;2.40;63.90;;;;;;4994043;28;20030;-46
2020/12/02 01:25:06;;;;;;;63.85;36.08;;;2.30;63.90;;;;;;4976883;28;20082;-46
2020/12/02 01:27:35;;;;;;;65.10;37.45;;;2.20;64.20;;;;;;4994029;28;20040;-45
2020/12/02 01:30:03;;;;;;;63.70;39.05;;;2.10;64.80;;;;;;4993813;28;20045;-46
2020/12/02 01:32:29;;;;;;;62.33;39.47;;;2.20;64.30;;;;;;4993717;28;20453;-46
2020/12/02 01:34:54;;;;;;;67.30;37.95;;;2.20;64.30;;;;;;4993878;28;20042;-45
2020/12/02 01:37:31;;;;;;;59.05;37.03;;;2.20;64.20;;;;;;4996190;28;20077;-46
2020/12/02 01:40:12;;;;;;;66.35;39.08;;;2.20;64.20;;;;;;5017893;28;20033;-46
2020/12/02 01:42:50;;;;;;;68.00;41.15;;;2.10;64.60;;;;;;5016848;28;20163;-46
2020/12/02 01:45:32;;;;;;;65.40;39.08;;;2.10;64.80;;;;;;4998044;28;20132;-45
2020/12/02 01:48:15;;;;;;;71.88;43.08;;;2.10;64.40;;;;;;4997871;28;20045;-45
2020/12/02 01:50:50;;;;;;;62.95;39.33;;;2.10;64.70;;;;;;5015987;28;20080;-44
2020/12/02 01:53:43;;;;;;;64.18;39.80;;;2.10;64.80;;;;;;5015815;28;20381;-45
2020/12/02 01:56:34;;;;;;;62.25;38.55;;;2.20;64.20;;;;;;5015004;28;20062;-46
2020/12/02 01:59:22;;;;;;;63.60;38.03;;;2.10;64.00;;;;;;5015077;28;20466;-46
2020/12/02 02:01:57;;;;;;;61.70;37.40;;;2.10;64.40;;;;;;5015107;28;20168;-46
2020/12/02 02:04:32;;;;;;;64.38;39.33;;;2.10;64.40;;;;;;5014764;28;20451;-46
2020/12/02 02:07:05;;;;;;;60.03;36.13;;;2.10;64.10;;;;;;5032552;28;20396;-46
2020/12/02 02:09:32;;;;;;;63.20;36.63;;;2.00;64.40;;;;;;5032297;28;20112;-46
2020/12/02 02:12:23;;;;;;;60.80;36.42;;;2.00;65.00;;;;;;5032393;28;20037;-45
2020/12/02 02:15:08;;;;;;;58.53;35.43;;;2.00;65.10;;;;;;4957165;28;20046;-46
2020/12/02 02:17:34;;;;;;;61.83;36.45;;;2.00;64.80;;;;;;4957291;28;20808;-45
2020/12/02 02:20:00;;;;;;;56.88;36.53;;;1.90;65.20;;;;;;4973717;28;20130;-47
2020/12/02 02:22:27;;;;;;;58.70;35.13;;;1.90;65.00;;;;;;4973509;28;20070;-47
2020/12/02 02:24:55;;;;;;;55.80;34.90;;;1.90;64.70;;;;;;4973151;28;20458;-45
2020/12/02 02:27:25;;;;;;;56.70;35.55;;;1.80;64.90;;;;;;4941857;28;20046;-45
2020/12/02 02:29:52;;;;;;;62.30;37.47;;;1.80;65.10;;;;;;4973363;28;20073;-46
2020/12/02 02:32:26;;;;;;;54.67;34.95;;;1.80;65.20;;;;;;4973343;28;20043;-46
2020/12/02 02:34:54;;;;;;;62.40;37.67;;;1.90;64.60;;;;;;4973058;28;20588;-45
2020/12/02 02:37:23;;;;;;;59.85;35.83;;;1.90;64.90;;;;;;4972638;28;20505;-46
2020/12/02 02:39:49;;;;;;;58.92;35.75;;;1.90;64.70;;;;;;4973087;28;20046;-46
2020/12/02 02:42:34;;;;;;;63.72;39.90;;;1.80;64.70;;;;;;4973309;28;20085;-46
2020/12/02 02:45:04;;;;;;;68.82;41.45;;;1.90;64.80;;;;;;4973034;28;20494;-46
2020/12/02 02:47:30;;;;;;;69.97;40.58;;;1.90;64.90;;;;;;4973049;28;20033;-45
2020/12/02 02:49:55;;;;;;;69.47;40.22;;;1.90;65.20;;;;;;4973092;28;20027;-45
2020/12/02 02:52:21;;;;;;;64.45;39.22;;;1.90;64.70;;;;;;5003728;28;20038;-46
2020/12/02 02:54:47;;;;;;;58.72;35.30;;;1.90;64.40;;;;;;5014011;28;20026;-45
2020/12/02 02:57:13;;;;;;;59.15;34.47;;;1.90;64.60;;;;;;5014105;28;20036;-46
2020/12/02 02:59:39;;;;;;;54.22;34.40;;;1.90;64.40;;;;;;5013952;28;20037;-46
2020/12/02 03:02:05;;;;;;;61.53;37.00;;;1.80;64.40;;;;;;5014117;28;20022;-46
2020/12/02 03:04:32;;;;;;;59.83;36.42;;;1.80;64.60;;;;;;5013914;28;20034;-46
2020/12/02 03:06:58;;;;;;;59.58;37.53;;;1.80;64.50;;;;;;5014007;28;20036;-45
2020/12/02 03:09:24;;;;;;;59.13;37.78;;;1.80;64.70;;;;;;5013896;28;20030;-45
2020/12/02 03:11:53;;;;;;;58.78;36.40;;;1.80;64.90;;;;;;5012093;28;20157;-46
2020/12/02 03:14:18;;;;;;;59.92;36.53;;;1.80;64.40;;;;;;5013472;28;20033;-45
2020/12/02 03:16:53;;;;;;;65.90;37.17;;;1.70;64.60;;;;;;5013762;28;20036;-46
2020/12/02 03:19:30;;;;;;;66.53;40.47;;;1.80;64.70;;;;;;5013618;28;20068;-46
2020/12/02 03:21:59;;;;;;;67.20;39.90;;;1.80;64.90;;;;;;5013704;28;20108;-46
2020/12/02 03:24:25;;;;;;;69.00;41.53;;;1.80;64.80;;;;;;5030985;28;20052;-46
2020/12/02 03:26:51;;;;;;;70.15;40.53;;;1.80;65.10;;;;;;5034829;28;20037;-46
2020/12/02 03:29:19;;;;;;;60.20;38.30;;;1.80;65.20;;;;;;5053104;28;20387;-46
2020/12/02 03:31:44;;;;;;;63.88;39.30;;;1.70;65.00;;;;;;5053101;28;20388;-46
2020/12/02 03:34:14;;;;;;;63.58;37.80;;;1.80;64.80;;;;;;5053258;28;20082;-46
2020/12/02 03:36:40;;;;;;;61.80;38.92;;;1.70;64.30;;;;;;5053192;28;20065;-45
2020/12/02 03:39:09;;;;;;;61.65;37.25;;;1.70;64.30;;;;;;5053092;28;20029;-45
2020/12/02 03:41:36;;;;;;;62.70;38.60;;;1.70;64.20;;;;;;5053011;28;20479;-46
2020/12/02 03:44:02;;;;;;;62.65;37.53;;;1.70;64.30;;;;;;5053140;28;20033;-46
2020/12/02 03:46:28;;;;;;;61.78;37.30;;;1.60;64.50;;;;;;5053047;28;20032;-45
2020/12/02 03:48:54;;;;;;;62.83;39.63;;;1.60;64.10;;;;;;5056830;28;20033;-45
2020/12/02 03:51:21;;;;;;;62.80;37.20;;;1.50;64.30;;;;;;5057302;28;20032;-46
2020/12/02 03:53:46;;;;;;;64.13;39.28;;;1.60;64.60;;;;;;5057095;28;20444;-46
2020/12/02 03:56:14;;;;;;;61.03;36.92;;;1.60;64.60;;;;;;5057043;28;20116;-45
2020/12/02 03:58:40;;;;;;;62.25;36.90;;;1.60;64.60;;;;;;5056986;28;20037;-46
2020/12/02 04:01:07;;;;;;;64.95;39.38;;;1.60;64.40;;;;;;5056959;28;20029;-46
2020/12/02 04:03:37;;;;;;;63.45;38.85;;;1.60;64.70;;;;;;5056943;28;20036;-45
2020/12/02 04:06:05;;;;;;;60.78;36.65;;;1.60;65.20;;;;;;5056757;28;20033;-45
2020/12/02 04:08:31;;;;;;;67.25;38.65;;;1.70;67.20;;;;;;5056821;28;20029;-45
2020/12/02 04:10:57;;;;;;;67.28;39.75;;;1.70;65.10;;;;;;5056683;28;20025;-46
2020/12/02 04:13:23;;;;;;;97.45;55.45;;;1.70;65.60;;;;;;5056653;28;20025;-46
2020/12/02 04:15:49;;;;;;;109.20;67.57;;;1.70;65.60;;;;;;5056872;28;20488;-46
2020/12/02 04:18:14;;;;;;;107.57;65.90;;;1.70;65.70;;;;;;5056691;28;20464;-46
2020/12/02 04:20:40;;;;;;;110.25;66.35;;;1.80;65.20;;;;;;5056317;28;20029;-46
2020/12/02 04:23:06;;;;;;;109.75;61.03;;;1.70;65.30;;;;;;5056641;28;20036;-45
2020/12/02 04:25:32;;;;;;;79.25;45.90;;;1.60;64.70;;;;;;5056459;28;20132;-46
2020/12/02 04:27:58;;;;;;;76.05;46.45;;;1.50;63.40;;;;;;5056339;28;20028;-45
2020/12/02 04:30:23;;;;;;;79.40;45.22;;;1.50;64.40;;;;;;5056444;28;20028;-46
2020/12/02 04:32:49;;;;;;;77.43;47.15;;;1.50;64.30;;;;;;5056451;28;20032;-46
2020/12/02 04:35:16;;;;;;;91.00;53.35;;;1.20;64.10;;;;;;5056305;28;20123;-45
2020/12/02 04:37:42;;;;;;;85.88;49.33;;;0.40;65.80;;;;;;5056272;28;20025;-45
2020/12/02 04:40:13;;;;;;;71.72;41.00;;;0.00;68.30;;;;;;5056094;28;20025;-46
2020/12/02 04:42:45;;;;;;;69.28;41.50;;;-0.60;69.70;;;;;;5056097;28;20029;-46
2020/12/02 04:45:14;;;;;;;98.53;53.20;;;-0.50;70.40;;;;;;5056135;28;20033;-46
2020/12/02 04:47:41;;;;;;;68.10;38.90;;;-0.90;69.40;;;;;;5056128;28;20033;-45
2020/12/02 04:50:36;;;;;;;67.55;40.35;;;-1.20;72.00;;;;;;5056331;28;20035;-45
2020/12/02 04:53:22;;;;;;;67.07;35.95;;;-1.00;71.60;;;;;;4994538;28;20043;-46
2020/12/02 04:55:56;;;;;;;62.00;34.92;;;-1.00;71.70;;;;;;4994629;28;20037;-46
2020/12/02 04:58:31;;;;;;;54.33;31.30;;;-0.80;72.20;;;;;;4994314;28;20037;-46
2020/12/02 05:01:23;;;;;;;217.63;117.78;;;-1.10;72.00;;;;;;4994291;28;20035;-45
2020/12/02 05:03:54;;;;;;;103.68;56.00;;;-0.80;71.10;;;;;;4994377;28;20065;-45
2020/12/02 05:06:33;;;;;;;136.35;83.93;;;-0.60;70.60;;;;;;4994439;28;20534;-45
2020/12/02 05:09:16;;;;;;;70.95;40.20;;;-0.50;70.90;;;;;;4994196;28;20057;-45
2020/12/02 05:11:53;;;;;;;56.00;33.30;;;-1.10;71.60;;;;;;4994381;28;20093;-45
2020/12/02 05:14:18;;;;;;;54.17;31.73;;;-1.30;72.00;;;;;;4994344;28;20034;-45
2020/12/02 05:16:44;;;;;;;53.90;30.92;;;-1.40;72.50;;;;;;4961862;28;20096;-45
2020/12/02 05:19:19;;;;;;;57.45;36.53;;;-1.60;73.50;;;;;;4994117;28;20156;-44
2020/12/02 05:21:45;;;;;;;58.78;35.95;;;-1.30;72.50;;;;;;4994072;28;20463;-46
2020/12/02 05:24:18;;;;;;;50.70;30.55;;;-1.10;72.50;;;;;;4993828;28;20054;-45
2020/12/02 05:26:49;;;;;;;51.72;29.92;;;-1.30;72.00;;;;;;4994084;28;20045;-46
2020/12/02 05:29:26;;;;;;;69.75;39.13;;;-1.40;72.30;;;;;;5020227;28;20094;-45
2020/12/02 05:32:01;;;;;;;64.82;34.42;;;-1.30;72.70;;;;;;5036774;28;20037;-45
2020/12/02 05:34:31;;;;;;;54.63;30.33;;;-1.30;72.40;;;;;;5034112;28;20041;-46
2020/12/02 05:36:59;;;;;;;53.53;27.50;;;-1.30;72.40;;;;;;5055260;28;20106;-46
2020/12/02 05:39:45;;;;;;;55.85;32.95;;;-2.00;75.60;;;;;;5055059;28;20115;-45
2020/12/02 05:42:19;;;;;;;52.28;30.33;;;-1.80;77.70;;;;;;5054984;28;20032;-46
2020/12/02 05:44:44;;;;;;;92.65;45.92;;;-1.60;76.10;;;;;;5054962;28;20025;-45
2020/12/02 05:47:16;;;;;;;103.47;47.70;;;-1.70;76.50;;;;;;5054947;28;20047;-46
2020/12/02 05:49:56;;;;;;;77.50;43.28;;;-1.30;75.20;;;;;;5055081;28;20107;-46
2020/12/02 05:52:32;;;;;;;55.05;32.88;;;-0.90;72.60;;;;;;5054500;28;20025;-45
2020/12/02 05:55:18;;;;;;;110.38;52.95;;;-1.40;72.60;;;;;;5036527;28;20428;-45
2020/12/02 05:58:04;;;;;;;62.95;33.03;;;-1.50;73.40;;;;;;5054889;28;20112;-46
2020/12/02 06:00:31;;;;;;;117.45;56.22;;;-1.90;75.20;;;;;;5036377;28;20060;-46
2020/12/02 06:02:58;;;;;;;84.07;45.13;;;-2.10;75.90;;;;;;5055800;28;20381;-45
2020/12/02 06:05:27;;;;;;;63.45;36.38;;;-1.70;74.60;;;;;;5056289;28;20112;-46
2020/12/02 06:07:55;;;;;;;59.55;32.35;;;-1.50;73.30;;;;;;5055855;28;20021;-45
2020/12/02 06:10:37;;;;;;;67.20;40.22;;;-1.40;72.70;;;;;;5054348;28;20503;-45
2020/12/02 06:13:04;;;;;;;65.32;36.58;;;-1.80;73.80;;;;;;5054945;28;20029;-45
2020/12/02 06:15:35;;;;;;;61.38;37.08;;;-1.90;75.50;;;;;;5055095;28;20127;-45
2020/12/02 06:18:39;;;;;;;56.80;33.83;;;-1.90;75.70;;;;;;5054443;28;20388;-45
2020/12/02 06:21:07;;;;;;;96.43;57.75;;;-2.30;76.80;;;;;;5054174;28;20029;-45
2020/12/02 06:23:45;;;;;;;55.28;34.53;;;-2.10;76.50;;;;;;5054202;28;20029;-45
2020/12/02 06:26:11;;;;;;;60.60;37.75;;;-2.10;77.20;;;;;;5054170;28;20235;-45
2020/12/02 06:28:37;;;;;;;67.75;38.63;;;-1.80;76.40;;;;;;5054131;28;20131;-46
2020/12/02 06:31:27;;;;;;;119.50;60.97;;;-1.80;75.70;;;;;;5054106;28;20361;-46
2020/12/02 06:33:53;;;;;;;103.18;53.28;;;-1.30;75.20;;;;;;4992677;28;20046;-46
2020/12/02 06:36:19;;;;;;;75.45;41.53;;;-1.10;76.50;;;;;;4992602;28;20049;-46
2020/12/02 06:38:51;;;;;;;69.97;40.55;;;-0.30;73.30;;;;;;4992537;28;20034;-45
2020/12/02 06:41:20;;;;;;;123.15;65.65;;;0.20;70.00;;;;;;4992726;28;20121;-46
2020/12/02 06:43:58;;;;;;;80.88;45.88;;;0.60;68.00;;;;;;4992478;28;20455;-46
2020/12/02 06:46:47;;;;;;;143.07;79.60;;;0.70;66.60;;;;;;4990906;28;20026;-45
2020/12/02 06:49:15;;;;;;;81.10;47.72;;;0.50;66.80;;;;;;4992383;28;20026;-46
2020/12/02 06:51:55;;;;;;;80.38;48.63;;;1.30;67.10;;;;;;4992376;28;20042;-44
2020/12/02 06:54:22;;;;;;;75.45;43.83;;;1.70;65.30;;;;;;4992210;28;20061;-46
2020/12/02 06:56:52;;;;;;;92.38;55.33;;;2.10;63.30;;;;;;4959988;28;20043;-45
2020/12/02 06:59:18;;;;;;;111.22;63.28;;;1.80;63.90;;;;;;4959740;28;20035;-45
2020/12/02 07:01:44;;;;;;;105.03;62.63;;;2.10;63.70;;;;;;4992376;28;20033;-46
2020/12/02 07:04:19;;;;;;;101.13;59.80;;;2.20;63.90;;;;;;4992291;28;20042;-45
2020/12/02 07:06:57;;;;;;;90.13;53.53;;;2.90;63.50;;;;;;4992320;28;20042;-46
2020/12/02 07:09:22;;;;;;;74.90;46.20;;;3.60;59.40;;;;;;4992136;28;20037;-46
2020/12/02 07:12:02;;;;;;;76.80;44.45;;;3.40;58.30;;;;;;5047759;28;20037;-46
2020/12/02 07:14:35;;;;;;;64.13;41.20;;;4.40;58.80;;;;;;5053246;28;20116;-46
2020/12/02 07:17:10;;;;;;;78.75;48.50;;;4.80;55.70;;;;;;5053312;28;20029;-52
2020/12/02 07:19:42;;;;;;;73.30;45.83;;;4.30;55.60;;;;;;5053632;28;20376;-46
2020/12/02 07:22:30;;;;;;;78.25;47.15;;;5.30;56.20;;;;;;5052943;28;20052;-48
2020/12/02 07:25:08;;;;;;;76.70;48.95;;;6.40;53.60;;;;;;5053225;28;20102;-48
2020/12/02 07:27:39;;;;;;;72.57;48.25;;;;;;;;;;5053583;28;20021;-49
2020/12/02 07:30:07;;;;;;;73.32;49.08;;;7.70;51.20;;;;;;5053580;28;20021;-48
2020/12/02 07:32:33;;;;;;;70.78;47.10;;;8.30;49.50;;;;;;5053583;28;20373;-48
2020/12/02 07:35:01;;;;;;;65.32;44.15;;;8.90;48.30;;;;;;5053136;28;20484;-48
2020/12/02 07:37:26;;;;;;;74.35;49.63;;;9.30;46.30;;;;;;5053228;28;20040;-48
2020/12/02 07:39:56;;;;;;;66.32;42.65;;;9.70;46.20;;;;;;5053050;28;20465;-48
2020/12/02 07:42:24;;;;;;;60.20;41.17;;;9.80;44.90;;;;;;5052693;28;20384;-49
2020/12/02 07:45:15;;;;;;;65.03;43.33;;;10.10;44.40;;;;;;5053002;28;20021;-48
2020/12/02 07:47:47;;;;;;;62.22;40.83;;;10.20;44.10;;;;;;5052938;28;20021;-48
2020/12/02 07:50:32;;;;;;;67.55;43.38;;;9.40;44.00;;;;;;5053223;28;20025;-48
2020/12/02 07:53:31;;;;;;;68.28;46.42;;;9.80;45.30;;;;;;5052940;28;20021;-48
2020/12/02 07:55:58;;;;;;;70.47;45.50;;;9.30;45.10;;;;;;5053079;28;20032;-48
2020/12/02 07:58:37;;;;;;;64.47;43.03;;;9.60;45.10;;;;;;5052910;28;20108;-48
2020/12/02 08:01:22;;;;;;;77.35;51.15;;;;;;;;;;5052694;28;20361;-48
2020/12/02 08:03:48;;;;;;;73.13;47.42;;;9.20;45.80;;;;;;5053221;28;20357;-48
2020/12/02 08:06:36;;;;;;;75.03;48.58;;;8.90;45.30;;;;;;5053186;28;20035;-48
2020/12/02 08:09:02;;;;;;;69.20;44.28;;;8.60;47.50;;;;;;5052884;28;20415;-48
2020/12/02 08:11:28;;;;;;;69.57;45.17;;;8.70;45.50;;;;;;5052980;28;20086;-48
2020/12/02 08:13:55;;;;;;;75.05;47.67;;;8.90;46.90;;;;;;5034618;28;20041;-48
2020/12/02 08:16:27;;;;;;;66.75;44.67;;;9.40;47.80;;;;;;5052632;28;20033;-48
2020/12/02 08:18:56;;;;;;;72.75;50.83;;;10.30;46.30;;;;;;5034586;28;20033;-49
2020/12/02 08:21:26;;;;;;;79.00;51.28;;;10.60;45.10;;;;;;5052837;28;20033;-48
2020/12/02 08:24:02;;;;;;;66.28;45.10;;;11.80;42.90;;;;;;5052569;28;20048;-48
2020/12/02 08:26:29;;;;;;;69.03;46.20;;;11.60;42.30;;;;;;5052626;28;20025;-48
2020/12/02 08:29:05;;;;;;;65.15;43.45;;;12.20;41.70;;;;;;5052758;28;20033;-49
2020/12/02 08:31:32;;;;;;;62.33;42.42;;;12.20;40.50;;;;;;5034310;28;20045;-48
2020/12/02 08:34:11;;;;;;;66.18;44.05;;;12.10;40.70;;;;;;5034561;28;20083;-48
2020/12/02 08:36:39;;;;;;;63.97;43.80;;;12.30;39.90;;;;;;5056160;28;20033;-48
2020/12/02 08:39:06;;;;;;;63.55;43.05;;;13.00;40.00;;;;;;5056328;28;20090;-49
2020/12/02 08:41:45;;;;;;;58.67;42.88;;;12.50;39.60;;;;;;5037823;28;20077;-48
2020/12/02 08:44:14;;;;;;;60.88;42.35;;;13.10;39.50;;;;;;5055974;28;20039;-49
2020/12/02 08:47:02;;;;;;;59.28;44.58;;;12.80;40.20;;;;;;5034947;28;20044;-49
2020/12/02 08:49:32;;;;;;;58.65;43.10;;;13.50;39.40;;;;;;5056056;28;20402;-49
2020/12/02 08:51:58;;;;;;;61.63;43.88;;;12.90;38.90;;;;;;5056009;28;20029;-48
2020/12/02 08:54:25;;;;;;;64.95;44.67;;;13.00;40.50;;;;;;5055812;28;20025;-49
2020/12/02 08:57:04;;;;;;;91.43;73.00;;;13.30;39.70;;;;;;5055866;28;20469;-48
2020/12/02 08:59:30;;;;;;;84.25;60.00;;;13.00;39.50;;;;;;5055926;28;20092;-49
2020/12/02 09:02:16;;;;;;;84.30;63.85;;;13.20;40.40;;;;;;5055758;28;20087;-49
2020/12/02 09:04:43;;;;;;;71.65;50.15;;;13.20;40.00;;;;;;5055768;28;20028;-49
2020/12/02 09:07:09;;;;;;;71.70;51.33;;;14.00;39.10;;;;;;5055878;28;20037;-48
2020/12/02 09:09:35;;;;;;;65.63;46.97;;;14.20;38.30;;;;;;5055714;28;20493;-49
2020/12/02 09:12:01;;;;;;;60.03;44.53;;;14.40;38.30;;;;;;5056073;28;20068;-48
2020/12/02 09:14:26;;;;;;;59.05;41.03;;;14.60;37.80;;;;;;5037229;28;20488;-48
2020/12/02 09:16:52;;;;;;;55.38;40.08;;;13.60;38.40;;;;;;5037504;28;20045;-47
2020/12/02 09:19:18;;;;;;;57.83;43.17;;;13.40;38.00;;;;;;5037143;28;20115;-48
2020/12/02 09:21:46;;;;;;;60.08;41.40;;;13.20;38.90;;;;;;5055491;28;20021;-48
2020/12/02 09:24:13;;;;;;;57.70;40.72;;;13.00;39.60;;;;;;5055338;28;20064;-48
2020/12/02 09:26:39;;;;;;;60.97;42.10;;;13.40;39.50;;;;;;5055478;28;20082;-48
2020/12/02 09:29:08;;;;;;;56.70;40.38;;;12.60;39.00;;;;;;5055618;28;20033;-48
2020/12/02 09:31:34;;;;;;;58.28;42.08;;;12.50;40.00;;;;;;5055322;28;20031;-48
2020/12/02 09:34:03;;;;;;;60.08;41.63;;;12.30;40.10;;;;;;5004084;28;20041;-48
2020/12/02 09:36:49;;;;;;;57.95;40.42;;;12.00;40.80;;;;;;5052589;28;20051;-48
2020/12/02 09:39:15;;;;;;;65.10;42.95;;;11.30;41.30;;;;;;4993220;28;20136;-47
2020/12/02 09:42:09;;;;;;;66.72;45.03;;;10.80;42.80;;;;;;5030254;28;20104;-48
2020/12/02 09:45:00;;;;;;;68.72;46.47;;;10.40;43.40;;;;;;5032883;28;20041;-48
2020/12/02 09:47:25;;;;;;;68.90;45.42;;;9.90;44.70;;;;;;5032848;28;20032;-49
2020/12/02 09:49:51;;;;;;;73.63;47.42;;;9.60;45.20;;;;;;5032884;28;20077;-49
2020/12/02 09:52:34;;;;;;;78.45;52.03;;;9.40;46.00;;;;;;5032893;28;20033;-48
2020/12/02 09:55:01;;;;;;;67.55;44.83;;;9.20;47.00;;;;;;4981480;28;20055;-45
2020/12/02 09:57:30;;;;;;;66.05;44.25;;;8.80;47.80;;;;;;5030493;28;20108;-45
2020/12/02 09:59:58;;;;;;;86.05;50.92;;;8.50;48.90;;;;;;5018480;28;20416;-45
2020/12/02 10:02:47;;;;;;;68.40;44.40;;;8.40;50.20;;;;;;5017792;28;20092;-45
2020/12/02 10:05:36;;;;;;;63.38;41.88;;;8.10;50.30;;;;;;4941630;29;20045;-45
2020/12/02 10:08:31;;;;;;;67.43;43.42;;;;;;;;;;4954577;29;20078;-45
2020/12/02 10:11:17;;;;;;;67.55;44.35;;;7.50;68.40;;;;;;4946403;29;20487;-45
2020/12/02 10:13:54;;;;;;;71.10;47.90;;;7.20;52.60;;;;;;4954551;29;20039;-45
2020/12/02 10:17:10;;;;;;;71.40;43.30;;;7.10;54.00;;;;;;4954467;29;20106;-45
2020/12/02 10:19:42;;;;;;;60.60;39.58;;;6.40;55.40;;;;;;4916150;29;20059;-45
2020/12/02 10:22:34;;;;;;;62.80;42.85;;;6.30;56.40;;;;;;4899727;29;20141;-45
2020/12/02 10:25:47;;;;;;;67.43;41.55;;;6.30;57.20;;;;;;4871999;29;20154;-45
2020/12/02 10:28:25;;;;;;;63.72;39.75;;;6.40;56.10;;;;;;4841781;29;20050;-45
2020/12/02 10:31:06;;;;;;;58.03;38.25;;;6.50;55.50;;;;;;4841455;29;20066;-45
2020/12/02 10:33:41;;;;;;;61.90;39.40;;;6.40;55.60;;;;;;4841404;29;20072;-45
2020/12/02 10:36:07;;;;;;;59.10;37.25;;;6.30;56.80;;;;;;4840916;29;20150;-44
2020/12/02 10:38:39;;;;;;;52.72;35.08;;;6.00;57.40;;;;;;4841536;29;20141;-45
2020/12/02 10:41:31;;;;;;;54.97;36.60;;;5.90;57.40;;;;;;4842112;29;20478;-45
2020/12/02 10:44:15;;;;;;;52.30;34.00;;;5.70;58.20;;;;;;4840872;29;20072;-44
2020/12/02 10:47:02;;;;;;;56.92;36.85;;;5.80;58.70;;;;;;4841156;29;20547;-45
2020/12/02 10:49:30;;;;;;;54.17;34.47;;;5.70;59.20;;;;;;4826008;29;20038;-45
2020/12/02 10:51:59;;;;;;;56.67;37.08;;;5.70;58.90;;;;;;4841200;29;20106;-45
2020/12/02 10:54:32;;;;;;;54.70;34.88;;;5.60;59.10;;;;;;4856547;29;20041;-45
2020/12/02 10:56:58;;;;;;;48.40;33.58;;;5.70;58.70;;;;;;4858958;29;20105;-44
2020/12/02 10:59:25;;;;;;;45.58;30.20;;;5.30;59.00;;;;;;4874439;29;20025;-45
2020/12/02 11:01:52;;;;;;;49.40;30.27;;;5.40;58.40;;;;;;4878794;29;20052;-45
2020/12/02 11:04:20;;;;;;;48.85;31.52;;;5.50;58.40;;;;;;4929894;28;20035;-44
2020/12/02 11:07:12;;;;;;;48.47;30.92;;;5.10;60.00;;;;;;4956146;28;20038;-44
2020/12/02 11:09:38;;;;;;;46.17;32.00;;;4.90;62.00;;;;;;4896456;29;20055;-45
2020/12/02 11:12:30;;;;;;;45.03;30.50;;;4.60;61.50;;;;;;4903444;29;20036;-44
2020/12/02 11:15:17;;;;;;;49.70;30.75;;;4.80;62.60;;;;;;4891289;29;20448;-45
2020/12/02 11:18:13;;;;;;;54.10;34.58;;;5.50;61.30;;;;;;4913583;29;20032;-45
2020/12/02 11:20:50;;;;;;;47.78;30.25;;;5.90;59.00;;;;;;4944284;28;20560;-45
2020/12/02 11:23:55;;;;;;;46.08;29.75;;;6.20;58.00;;;;;;4975782;28;20399;-45
2020/12/02 11:26:25;;;;;;;47.80;30.80;;;6.10;57.70;;;;;;4983604;28;20045;-48
2020/12/02 11:28:55;;;;;;;48.25;30.38;;;6.20;57.10;;;;;;4963289;28;20057;-45
2020/12/02 11:31:38;;;;;;;48.45;31.70;;;6.40;57.10;;;;;;4972272;28;20066;-46
2020/12/02 11:34:07;;;;;;;53.08;34.83;;;;;;;;;;4956101;28;20450;-46
2020/12/02 11:36:46;;;;;;;49.10;33.70;;;7.20;54.30;;;;;;4972313;28;20122;-46
2020/12/02 11:39:30;;;;;;;50.75;32.90;;;7.10;55.40;;;;;;4915219;29;20425;-49
2020/12/02 11:42:09;;;;;;;54.97;33.95;;;7.40;55.00;;;;;;4915121;29;20035;-49
2020/12/02 11:44:47;;;;;;;49.97;30.90;;;7.00;54.00;;;;;;4920640;29;20093;-48
2020/12/02 11:47:42;;;;;;;48.42;31.30;;;7.00;55.20;;;;;;4990172;28;20037;-49
2020/12/02 11:50:20;;;;;;;48.42;30.88;;;6.50;55.70;;;;;;4993143;28;20042;-48
2020/12/02 11:52:58;;;;;;;47.72;31.25;;;6.40;56.80;;;;;;5011241;28;20038;-48
2020/12/02 11:55:24;;;;;;;50.53;31.23;;;6.40;58.10;;;;;;5011328;28;20560;-48
2020/12/02 11:57:53;;;;;;;57.83;36.00;;;6.00;58.50;;;;;;5011354;28;20034;-48
2020/12/02 12:00:19;;;;;;;53.92;32.92;;;6.40;57.50;;;;;;5011599;28;20040;-48
2020/12/02 12:03:28;;;;;;;50.15;31.65;;;6.70;57.00;;;;;;5011203;28;20073;-48
2020/12/02 12:06:11;;;;;;;49.70;32.00;;;6.70;56.70;;;;;;5011265;28;20121;-50
2020/12/02 12:09:06;;;;;;;54.90;35.47;;;6.60;56.90;;;;;;5013243;28;20022;-49
2020/12/02 12:11:37;;;;;;;49.10;30.75;;;6.60;57.70;;;;;;5057191;28;20027;-48
2020/12/02 12:14:15;;;;;;;56.67;32.88;;;6.60;57.40;;;;;;5038477;28;20083;-49
2020/12/02 12:17:02;;;;;;;51.63;31.85;;;6.40;57.10;;;;;;5056701;28;20037;-48
2020/12/02 12:20:05;;;;;;;53.97;34.05;;;6.60;58.00;;;;;;5038150;28;20083;-48
2020/12/02 12:22:45;;;;;;;49.15;31.25;;;7.20;57.00;;;;;;5056700;28;20065;-48
2020/12/02 12:25:32;;;;;;;67.45;38.03;;;7.50;56.10;;;;;;5056305;28;20052;-49
2020/12/02 12:28:11;;;;;;;45.85;29.73;;;7.20;56.00;;;;;;5049491;28;20064;-49
2020/12/02 12:30:37;;;;;;;45.85;28.85;;;7.50;55.60;;;;;;5057027;28;20487;-48
2020/12/02 12:33:15;;;;;;;44.92;28.80;;;7.80;55.90;;;;;;5037896;28;20037;-49
2020/12/02 12:35:49;;;;;;;43.40;26.85;;;8.40;54.80;;;;;;5056384;28;20107;-49
2020/12/02 12:38:27;;;;;;;40.45;26.77;;;7.80;54.20;;;;;;5055976;28;20369;-49
2020/12/02 12:41:14;;;;;;;42.95;29.55;;;8.10;54.70;;;;;;5055688;28;20542;-49
2020/12/02 12:43:57;;;;;;;41.97;29.17;;;8.30;53.70;;;;;;5056483;28;20053;-48
2020/12/02 12:46:32;;;;;;;46.85;28.42;;;8.40;52.80;;;;;;5038079;28;20037;-49
2020/12/02 12:48:59;;;;;;;38.60;25.40;;;8.20;54.80;;;;;;5054472;28;20049;-48
2020/12/02 12:51:28;;;;;;;39.72;26.50;;;7.80;54.00;;;;;;5056214;28;20033;-49
2020/12/02 12:53:56;;;;;;;41.85;27.20;;;8.00;55.40;;;;;;5037637;28;20431;-49
2020/12/02 12:56:23;;;;;;;41.90;26.33;;;8.20;55.00;;;;;;5056010;28;20037;-49
2020/12/02 12:58:49;;;;;;;46.75;29.20;;;7.90;55.60;;;;;;5053073;28;20534;-45
2020/12/02 13:01:16;;;;;;;36.55;24.90;;;8.20;54.90;;;;;;5025516;28;20045;-48
2020/12/02 13:03:43;;;;;;;35.47;24.23;;;8.20;54.30;;;;;;5036065;28;20037;-46
2020/12/02 13:06:11;;;;;;;37.88;25.00;;;8.20;54.00;;;;;;5035643;28;20030;-50
2020/12/02 13:08:59;;;;;;;32.83;24.38;;;8.10;54.90;;;;;;5036049;28;20032;-49